sensor_id;sensor_type;location;lat;lon;timestamp;P1;durP1;ratioP1;P2;durP2;ratioP2
23470;SDS011;11908;50.806;4.424;2023-05-29T00:00:28;17.27;;;7.80;;
23470;SDS011;11908;50.806;4.424;2023-05-29T00:02:54;17.20;;;7.72;;
23470;SDS011;11908;50.806;4.424;2023-05-29T00:05:19;15.00;;;7.47;;
23470;SDS011;11908;50.806;4.424;2023-05-29T00:07:45;16.88;;;7.72;;
23470;SDS011;11908;50.806;4.424;2023-05-29T00:10:11;16.17;;;8.05;;
23470;SDS011;11908;50.806;4.424;2023-05-29T00:12:37;14.10;;;7.70;;
23470;SDS011;11908;50.806;4.424;2023-05-29T00:15:03;18.52;;;7.75;;
23470;SDS011;11908;50.806;4.424;2023-05-29T00:17:30;16.38;;;8.02;;
23470;SDS011;11908;50.806;4.424;2023-05-29T00:19:59;14.20;;;8.18;;
23470;SDS011;11908;50.806;4.424;2023-05-29T00:22:26;18.02;;;8.38;;
23470;SDS011;11908;50.806;4.424;2023-05-29T00:24:52;20.52;;;8.55;;
23470;SDS011;11908;50.806;4.424;2023-05-29T00:27:18;18.77;;;8.70;;
23470;SDS011;11908;50.806;4.424;2023-05-29T00:29:43;19.42;;;7.90;;
23470;SDS011;11908;50.806;4.424;2023-05-29T00:32:10;16.35;;;8.20;;
23470;SDS011;11908;50.806;4.424;2023-05-29T00:34:35;15.80;;;8.45;;
23470;SDS011;11908;50.806;4.424;2023-05-29T00:37:01;16.48;;;9.15;;
23470;SDS011;11908;50.806;4.424;2023-05-29T00:39:27;16.27;;;8.45;;
23470;SDS011;11908;50.806;4.424;2023-05-29T00:41:53;15.35;;;8.98;;
23470;SDS011;11908;50.806;4.424;2023-05-29T00:44:18;19.10;;;8.65;;
23470;SDS011;11908;50.806;4.424;2023-05-29T00:46:45;17.27;;;8.80;;
23470;SDS011;11908;50.806;4.424;2023-05-29T00:49:11;18.58;;;8.73;;
23470;SDS011;11908;50.806;4.424;2023-05-29T00:51:37;19.10;;;9.50;;
23470;SDS011;11908;50.806;4.424;2023-05-29T00:54:06;19.98;;;9.98;;
23470;SDS011;11908;50.806;4.424;2023-05-29T00:56:34;19.40;;;8.35;;
23470;SDS011;11908;50.806;4.424;2023-05-29T00:59:00;15.85;;;9.18;;
23470;SDS011;11908;50.806;4.424;2023-05-29T01:04:46;21.63;;;10.40;;
23470;SDS011;11908;50.806;4.424;2023-05-29T01:07:11;16.90;;;9.40;;
23470;SDS011;11908;50.806;4.424;2023-05-29T01:09:39;22.85;;;10.13;;
23470;SDS011;11908;50.806;4.424;2023-05-29T01:12:27;17.80;;;10.40;;
23470;SDS011;11908;50.806;4.424;2023-05-29T01:15:21;13.98;;;9.63;;
23470;SDS011;11908;50.806;4.424;2023-05-29T01:18:07;19.38;;;9.43;;
23470;SDS011;11908;50.806;4.424;2023-05-29T01:26:11;16.00;;;9.50;;
23470;SDS011;11908;50.806;4.424;2023-05-29T01:28:57;16.83;;;9.73;;
23470;SDS011;11908;50.806;4.424;2023-05-29T01:31:27;17.85;;;9.63;;
23470;SDS011;11908;50.806;4.424;2023-05-29T01:33:54;17.13;;;9.77;;
23470;SDS011;11908;50.806;4.424;2023-05-29T01:36:21;20.80;;;9.82;;
23470;SDS011;11908;50.806;4.424;2023-05-29T01:38:47;20.67;;;10.13;;
23470;SDS011;11908;50.806;4.424;2023-05-29T01:41:15;18.20;;;9.95;;
23470;SDS011;11908;50.806;4.424;2023-05-29T01:43:43;17.45;;;9.93;;
23470;SDS011;11908;50.806;4.424;2023-05-29T01:46:10;22.40;;;11.35;;
23470;SDS011;11908;50.806;4.424;2023-05-29T01:48:37;17.38;;;9.85;;
23470;SDS011;11908;50.806;4.424;2023-05-29T01:51:03;17.08;;;9.55;;
23470;SDS011;11908;50.806;4.424;2023-05-29T01:53:29;16.65;;;9.80;;
23470;SDS011;11908;50.806;4.424;2023-05-29T01:55:55;15.25;;;9.70;;
23470;SDS011;11908;50.806;4.424;2023-05-29T01:58:21;19.58;;;10.27;;
23470;SDS011;11908;50.806;4.424;2023-05-29T02:00:48;22.17;;;10.88;;
23470;SDS011;11908;50.806;4.424;2023-05-29T02:03:14;19.00;;;10.27;;
23470;SDS011;11908;50.806;4.424;2023-05-29T02:05:39;26.58;;;10.65;;
23470;SDS011;11908;50.806;4.424;2023-05-29T02:08:05;19.67;;;9.63;;
23470;SDS011;11908;50.806;4.424;2023-05-29T02:10:31;20.63;;;10.30;;
23470;SDS011;11908;50.806;4.424;2023-05-29T02:12:57;17.63;;;9.93;;
23470;SDS011;11908;50.806;4.424;2023-05-29T02:15:22;15.07;;;9.30;;
23470;SDS011;11908;50.806;4.424;2023-05-29T02:17:48;16.70;;;9.15;;
23470;SDS011;11908;50.806;4.424;2023-05-29T02:20:15;19.95;;;10.32;;
23470;SDS011;11908;50.806;4.424;2023-05-29T02:22:40;17.63;;;9.77;;
23470;SDS011;11908;50.806;4.424;2023-05-29T02:25:06;20.60;;;8.80;;
23470;SDS011;11908;50.806;4.424;2023-05-29T02:27:32;18.10;;;10.15;;
23470;SDS011;11908;50.806;4.424;2023-05-29T02:29:58;15.20;;;9.23;;
23470;SDS011;11908;50.806;4.424;2023-05-29T02:32:24;17.85;;;9.15;;
23470;SDS011;11908;50.806;4.424;2023-05-29T02:34:52;16.00;;;9.15;;
23470;SDS011;11908;50.806;4.424;2023-05-29T02:37:18;19.60;;;9.70;;
23470;SDS011;11908;50.806;4.424;2023-05-29T02:39:44;16.83;;;9.05;;
23470;SDS011;11908;50.806;4.424;2023-05-29T02:42:10;20.50;;;9.10;;
23470;SDS011;11908;50.806;4.424;2023-05-29T02:44:35;15.75;;;8.88;;
23470;SDS011;11908;50.806;4.424;2023-05-29T02:47:01;19.50;;;8.85;;
23470;SDS011;11908;50.806;4.424;2023-05-29T02:49:27;18.92;;;8.75;;
23470;SDS011;11908;50.806;4.424;2023-05-29T02:51:52;15.45;;;8.05;;
23470;SDS011;11908;50.806;4.424;2023-05-29T02:54:23;20.67;;;7.35;;
23470;SDS011;11908;50.806;4.424;2023-05-29T02:56:49;14.68;;;7.75;;
23470;SDS011;11908;50.806;4.424;2023-05-29T02:59:15;19.13;;;7.18;;
23470;SDS011;11908;50.806;4.424;2023-05-29T03:01:40;16.92;;;7.07;;
23470;SDS011;11908;50.806;4.424;2023-05-29T03:04:07;20.65;;;6.88;;
23470;SDS011;11908;50.806;4.424;2023-05-29T03:06:34;18.73;;;7.88;;
23470;SDS011;11908;50.806;4.424;2023-05-29T03:09:01;19.95;;;8.30;;
23470;SDS011;11908;50.806;4.424;2023-05-29T03:11:30;18.75;;;6.88;;
23470;SDS011;11908;50.806;4.424;2023-05-29T03:13:57;20.77;;;7.78;;
23470;SDS011;11908;50.806;4.424;2023-05-29T03:16:23;16.50;;;7.78;;
23470;SDS011;11908;50.806;4.424;2023-05-29T03:18:50;13.90;;;6.60;;
23470;SDS011;11908;50.806;4.424;2023-05-29T03:21:16;18.25;;;7.38;;
23470;SDS011;11908;50.806;4.424;2023-05-29T03:23:42;19.55;;;7.00;;
23470;SDS011;11908;50.806;4.424;2023-05-29T03:26:08;14.27;;;5.22;;
23470;SDS011;11908;50.806;4.424;2023-05-29T03:28:33;16.17;;;5.55;;
23470;SDS011;11908;50.806;4.424;2023-05-29T03:30:59;14.65;;;5.45;;
23470;SDS011;11908;50.806;4.424;2023-05-29T03:33:25;15.48;;;6.00;;
23470;SDS011;11908;50.806;4.424;2023-05-29T03:35:51;17.80;;;5.50;;
23470;SDS011;11908;50.806;4.424;2023-05-29T03:38:16;20.73;;;5.82;;
23470;SDS011;11908;50.806;4.424;2023-05-29T03:40:42;18.30;;;5.57;;
23470;SDS011;11908;50.806;4.424;2023-05-29T03:43:08;22.90;;;5.47;;
23470;SDS011;11908;50.806;4.424;2023-05-29T03:45:33;17.98;;;4.65;;
23470;SDS011;11908;50.806;4.424;2023-05-29T03:47:59;15.98;;;5.13;;
23470;SDS011;11908;50.806;4.424;2023-05-29T03:50:25;13.68;;;4.60;;
23470;SDS011;11908;50.806;4.424;2023-05-29T03:52:50;13.15;;;4.57;;
23470;SDS011;11908;50.806;4.424;2023-05-29T03:55:16;14.50;;;4.97;;
23470;SDS011;11908;50.806;4.424;2023-05-29T03:57:42;16.27;;;4.97;;
23470;SDS011;11908;50.806;4.424;2023-05-29T04:00:08;17.23;;;5.32;;
23470;SDS011;11908;50.806;4.424;2023-05-29T04:02:36;17.42;;;4.85;;
23470;SDS011;11908;50.806;4.424;2023-05-29T04:05:04;19.58;;;5.20;;
23470;SDS011;11908;50.806;4.424;2023-05-29T04:07:35;20.00;;;4.80;;
23470;SDS011;11908;50.806;4.424;2023-05-29T04:10:02;19.13;;;4.63;;
23470;SDS011;11908;50.806;4.424;2023-05-29T04:12:28;18.05;;;4.57;;
23470;SDS011;11908;50.806;4.424;2023-05-29T04:14:54;20.20;;;4.22;;
23470;SDS011;11908;50.806;4.424;2023-05-29T04:17:19;13.23;;;4.20;;
23470;SDS011;11908;50.806;4.424;2023-05-29T04:19:45;18.13;;;3.95;;
23470;SDS011;11908;50.806;4.424;2023-05-29T04:22:11;16.30;;;3.85;;
23470;SDS011;11908;50.806;4.424;2023-05-29T04:24:36;17.23;;;4.25;;
23470;SDS011;11908;50.806;4.424;2023-05-29T04:27:02;14.73;;;3.83;;
23470;SDS011;11908;50.806;4.424;2023-05-29T04:29:28;9.73;;;3.35;;
23470;SDS011;11908;50.806;4.424;2023-05-29T04:31:54;13.15;;;3.78;;
23470;SDS011;11908;50.806;4.424;2023-05-29T04:34:20;10.98;;;3.33;;
23470;SDS011;11908;50.806;4.424;2023-05-29T04:36:46;15.13;;;3.50;;
23470;SDS011;11908;50.806;4.424;2023-05-29T04:39:13;14.93;;;3.35;;
23470;SDS011;11908;50.806;4.424;2023-05-29T04:41:42;14.73;;;3.38;;
23470;SDS011;11908;50.806;4.424;2023-05-29T04:44:08;12.82;;;3.30;;
23470;SDS011;11908;50.806;4.424;2023-05-29T04:46:36;14.43;;;4.05;;
23470;SDS011;11908;50.806;4.424;2023-05-29T04:49:03;9.85;;;3.10;;
23470;SDS011;11908;50.806;4.424;2023-05-29T04:51:29;14.05;;;3.58;;
23470;SDS011;11908;50.806;4.424;2023-05-29T04:53:56;11.65;;;3.08;;
23470;SDS011;11908;50.806;4.424;2023-05-29T04:56:21;10.68;;;3.60;;
23470;SDS011;11908;50.806;4.424;2023-05-29T04:58:47;15.15;;;3.35;;
23470;SDS011;11908;50.806;4.424;2023-05-29T05:01:13;13.02;;;3.05;;
23470;SDS011;11908;50.806;4.424;2023-05-29T05:03:43;13.63;;;3.33;;
23470;SDS011;11908;50.806;4.424;2023-05-29T05:06:09;8.48;;;3.13;;
23470;SDS011;11908;50.806;4.424;2023-05-29T05:08:35;13.60;;;3.20;;
23470;SDS011;11908;50.806;4.424;2023-05-29T05:11:01;16.67;;;2.85;;
23470;SDS011;11908;50.806;4.424;2023-05-29T05:13:27;15.40;;;3.40;;
23470;SDS011;11908;50.806;4.424;2023-05-29T05:15:53;16.02;;;3.75;;
23470;SDS011;11908;50.806;4.424;2023-05-29T05:18:19;13.10;;;3.20;;
23470;SDS011;11908;50.806;4.424;2023-05-29T05:20:45;11.52;;;3.35;;
23470;SDS011;11908;50.806;4.424;2023-05-29T05:23:11;17.67;;;4.00;;
23470;SDS011;11908;50.806;4.424;2023-05-29T05:25:37;11.98;;;3.20;;
23470;SDS011;11908;50.806;4.424;2023-05-29T05:28:04;10.23;;;3.13;;
23470;SDS011;11908;50.806;4.424;2023-05-29T05:30:30;9.18;;;2.70;;
23470;SDS011;11908;50.806;4.424;2023-05-29T05:32:56;14.10;;;3.38;;
23470;SDS011;11908;50.806;4.424;2023-05-29T05:35:22;14.15;;;3.53;;
23470;SDS011;11908;50.806;4.424;2023-05-29T05:37:48;10.57;;;3.13;;
23470;SDS011;11908;50.806;4.424;2023-05-29T05:40:13;12.75;;;2.67;;
23470;SDS011;11908;50.806;4.424;2023-05-29T05:42:39;11.43;;;3.20;;
23470;SDS011;11908;50.806;4.424;2023-05-29T05:45:05;11.82;;;2.70;;
23470;SDS011;11908;50.806;4.424;2023-05-29T05:47:32;13.02;;;2.92;;
23470;SDS011;11908;50.806;4.424;2023-05-29T05:49:58;8.05;;;3.08;;
23470;SDS011;11908;50.806;4.424;2023-05-29T05:52:24;9.80;;;3.08;;
23470;SDS011;11908;50.806;4.424;2023-05-29T05:54:51;12.85;;;3.42;;
23470;SDS011;11908;50.806;4.424;2023-05-29T05:57:16;12.30;;;3.10;;
23470;SDS011;11908;50.806;4.424;2023-05-29T05:59:42;13.60;;;3.15;;
23470;SDS011;11908;50.806;4.424;2023-05-29T06:02:08;12.07;;;3.45;;
23470;SDS011;11908;50.806;4.424;2023-05-29T06:04:33;10.55;;;2.97;;
23470;SDS011;11908;50.806;4.424;2023-05-29T06:06:59;11.65;;;3.10;;
23470;SDS011;11908;50.806;4.424;2023-05-29T06:09:25;12.00;;;3.22;;
23470;SDS011;11908;50.806;4.424;2023-05-29T06:11:51;12.55;;;3.22;;
23470;SDS011;11908;50.806;4.424;2023-05-29T06:14:17;14.20;;;3.72;;
23470;SDS011;11908;50.806;4.424;2023-05-29T06:16:42;12.73;;;3.70;;
23470;SDS011;11908;50.806;4.424;2023-05-29T06:19:08;14.32;;;3.72;;
23470;SDS011;11908;50.806;4.424;2023-05-29T06:21:34;10.63;;;2.97;;
23470;SDS011;11908;50.806;4.424;2023-05-29T06:24:00;9.85;;;2.90;;
23470;SDS011;11908;50.806;4.424;2023-05-29T06:26:26;9.88;;;3.33;;
23470;SDS011;11908;50.806;4.424;2023-05-29T06:28:52;15.43;;;3.42;;
23470;SDS011;11908;50.806;4.424;2023-05-29T06:31:18;10.75;;;3.55;;
23470;SDS011;11908;50.806;4.424;2023-05-29T06:33:45;11.75;;;3.38;;
23470;SDS011;11908;50.806;4.424;2023-05-29T06:36:10;9.23;;;3.58;;
23470;SDS011;11908;50.806;4.424;2023-05-29T06:38:36;12.55;;;2.88;;
23470;SDS011;11908;50.806;4.424;2023-05-29T06:41:02;12.20;;;3.17;;
23470;SDS011;11908;50.806;4.424;2023-05-29T06:43:28;12.38;;;3.53;;
23470;SDS011;11908;50.806;4.424;2023-05-29T06:45:54;13.07;;;3.67;;
23470;SDS011;11908;50.806;4.424;2023-05-29T06:48:20;12.52;;;3.42;;
23470;SDS011;11908;50.806;4.424;2023-05-29T06:50:49;9.77;;;3.40;;
23470;SDS011;11908;50.806;4.424;2023-05-29T06:53:15;16.63;;;3.72;;
23470;SDS011;11908;50.806;4.424;2023-05-29T06:55:41;17.85;;;3.20;;
23470;SDS011;11908;50.806;4.424;2023-05-29T06:58:07;11.85;;;3.45;;
23470;SDS011;11908;50.806;4.424;2023-05-29T07:00:32;10.35;;;3.30;;
23470;SDS011;11908;50.806;4.424;2023-05-29T07:02:58;12.50;;;3.67;;
23470;SDS011;11908;50.806;4.424;2023-05-29T07:05:23;11.68;;;3.53;;
23470;SDS011;11908;50.806;4.424;2023-05-29T07:07:51;12.48;;;3.55;;
23470;SDS011;11908;50.806;4.424;2023-05-29T07:10:16;14.00;;;2.92;;
23470;SDS011;11908;50.806;4.424;2023-05-29T07:12:42;15.52;;;3.75;;
23470;SDS011;11908;50.806;4.424;2023-05-29T07:15:08;11.50;;;2.92;;
23470;SDS011;11908;50.806;4.424;2023-05-29T07:17:34;9.57;;;2.95;;
23470;SDS011;11908;50.806;4.424;2023-05-29T07:20:00;10.93;;;3.13;;
23470;SDS011;11908;50.806;4.424;2023-05-29T07:22:26;14.20;;;3.15;;
23470;SDS011;11908;50.806;4.424;2023-05-29T07:24:52;9.95;;;3.35;;
23470;SDS011;11908;50.806;4.424;2023-05-29T07:27:17;10.40;;;2.90;;
23470;SDS011;11908;50.806;4.424;2023-05-29T07:29:43;11.38;;;3.28;;
23470;SDS011;11908;50.806;4.424;2023-05-29T07:32:08;10.90;;;3.08;;
23470;SDS011;11908;50.806;4.424;2023-05-29T07:34:35;11.80;;;3.40;;
23470;SDS011;11908;50.806;4.424;2023-05-29T07:37:01;13.00;;;3.22;;
23470;SDS011;11908;50.806;4.424;2023-05-29T07:39:28;11.43;;;3.08;;
23470;SDS011;11908;50.806;4.424;2023-05-29T07:41:55;9.90;;;3.03;;
23470;SDS011;11908;50.806;4.424;2023-05-29T07:44:20;10.02;;;2.70;;
23470;SDS011;11908;50.806;4.424;2023-05-29T07:46:46;12.90;;;3.50;;
23470;SDS011;11908;50.806;4.424;2023-05-29T07:49:12;10.93;;;2.72;;
23470;SDS011;11908;50.806;4.424;2023-05-29T07:51:37;10.07;;;2.80;;
23470;SDS011;11908;50.806;4.424;2023-05-29T07:54:03;16.50;;;3.15;;
23470;SDS011;11908;50.806;4.424;2023-05-29T07:56:30;13.93;;;3.10;;
23470;SDS011;11908;50.806;4.424;2023-05-29T07:58:56;12.73;;;3.10;;
23470;SDS011;11908;50.806;4.424;2023-05-29T08:01:23;11.02;;;3.22;;
23470;SDS011;11908;50.806;4.424;2023-05-29T08:03:49;12.93;;;3.70;;
23470;SDS011;11908;50.806;4.424;2023-05-29T08:06:15;8.95;;;2.70;;
23470;SDS011;11908;50.806;4.424;2023-05-29T08:08:40;12.23;;;3.25;;
23470;SDS011;11908;50.806;4.424;2023-05-29T08:11:06;10.98;;;3.05;;
23470;SDS011;11908;50.806;4.424;2023-05-29T08:13:32;9.07;;;2.97;;
23470;SDS011;11908;50.806;4.424;2023-05-29T08:15:57;9.35;;;2.38;;
23470;SDS011;11908;50.806;4.424;2023-05-29T08:18:26;13.15;;;2.97;;
23470;SDS011;11908;50.806;4.424;2023-05-29T08:20:52;9.13;;;2.95;;
23470;SDS011;11908;50.806;4.424;2023-05-29T08:23:18;9.65;;;3.42;;
23470;SDS011;11908;50.806;4.424;2023-05-29T08:25:43;10.65;;;2.88;;
23470;SDS011;11908;50.806;4.424;2023-05-29T08:28:09;6.32;;;3.15;;
23470;SDS011;11908;50.806;4.424;2023-05-29T08:30:35;13.95;;;2.95;;
23470;SDS011;11908;50.806;4.424;2023-05-29T08:33:02;11.27;;;2.90;;
23470;SDS011;11908;50.806;4.424;2023-05-29T08:35:28;12.73;;;3.28;;
23470;SDS011;11908;50.806;4.424;2023-05-29T08:37:54;13.57;;;3.70;;
23470;SDS011;11908;50.806;4.424;2023-05-29T08:40:20;10.80;;;3.33;;
23470;SDS011;11908;50.806;4.424;2023-05-29T08:42:59;10.55;;;3.30;;
23470;SDS011;11908;50.806;4.424;2023-05-29T08:45:31;11.23;;;3.55;;
23470;SDS011;11908;50.806;4.424;2023-05-29T08:48:02;9.25;;;3.15;;
23470;SDS011;11908;50.806;4.424;2023-05-29T08:50:28;9.98;;;3.05;;
23470;SDS011;11908;50.806;4.424;2023-05-29T08:52:53;10.85;;;3.05;;
23470;SDS011;11908;50.806;4.424;2023-05-29T08:55:22;9.60;;;2.75;;
23470;SDS011;11908;50.806;4.424;2023-05-29T08:57:47;9.93;;;2.92;;
23470;SDS011;11908;50.806;4.424;2023-05-29T09:00:15;15.63;;;3.75;;
23470;SDS011;11908;50.806;4.424;2023-05-29T09:02:43;10.68;;;3.28;;
23470;SDS011;11908;50.806;4.424;2023-05-29T09:05:09;17.05;;;4.13;;
23470;SDS011;11908;50.806;4.424;2023-05-29T09:07:36;11.98;;;3.45;;
23470;SDS011;11908;50.806;4.424;2023-05-29T09:10:06;11.40;;;3.20;;
23470;SDS011;11908;50.806;4.424;2023-05-29T09:12:33;9.52;;;2.97;;
23470;SDS011;11908;50.806;4.424;2023-05-29T09:14:59;11.95;;;3.95;;
23470;SDS011;11908;50.806;4.424;2023-05-29T09:17:30;11.02;;;3.47;;
23470;SDS011;11908;50.806;4.424;2023-05-29T09:19:57;13.35;;;3.60;;
23470;SDS011;11908;50.806;4.424;2023-05-29T09:22:22;14.45;;;3.85;;
23470;SDS011;11908;50.806;4.424;2023-05-29T09:24:48;10.35;;;3.75;;
23470;SDS011;11908;50.806;4.424;2023-05-29T09:27:15;11.63;;;3.08;;
23470;SDS011;11908;50.806;4.424;2023-05-29T09:29:42;9.10;;;2.95;;
23470;SDS011;11908;50.806;4.424;2023-05-29T09:32:10;17.90;;;3.53;;
23470;SDS011;11908;50.806;4.424;2023-05-29T09:34:37;12.82;;;3.63;;
23470;SDS011;11908;50.806;4.424;2023-05-29T09:37:07;12.18;;;3.17;;
23470;SDS011;11908;50.806;4.424;2023-05-29T09:39:41;11.73;;;3.35;;
23470;SDS011;11908;50.806;4.424;2023-05-29T09:42:10;15.95;;;3.72;;
23470;SDS011;11908;50.806;4.424;2023-05-29T09:44:36;9.00;;;3.13;;
23470;SDS011;11908;50.806;4.424;2023-05-29T09:47:02;12.63;;;3.25;;
23470;SDS011;11908;50.806;4.424;2023-05-29T09:49:29;11.60;;;3.22;;
23470;SDS011;11908;50.806;4.424;2023-05-29T09:51:57;10.85;;;2.92;;
23470;SDS011;11908;50.806;4.424;2023-05-29T09:54:24;11.25;;;3.13;;
23470;SDS011;11908;50.806;4.424;2023-05-29T09:56:56;12.93;;;3.42;;
23470;SDS011;11908;50.806;4.424;2023-05-29T09:59:23;17.20;;;4.10;;
23470;SDS011;11908;50.806;4.424;2023-05-29T10:01:49;12.00;;;3.90;;
23470;SDS011;11908;50.806;4.424;2023-05-29T10:04:25;14.82;;;3.47;;
23470;SDS011;11908;50.806;4.424;2023-05-29T10:06:51;12.48;;;3.50;;
23470;SDS011;11908;50.806;4.424;2023-05-29T10:09:17;9.73;;;3.35;;
23470;SDS011;11908;50.806;4.424;2023-05-29T10:11:47;13.65;;;3.53;;
23470;SDS011;11908;50.806;4.424;2023-05-29T10:14:18;15.43;;;3.40;;
23470;SDS011;11908;50.806;4.424;2023-05-29T10:16:48;9.48;;;2.83;;
23470;SDS011;11908;50.806;4.424;2023-05-29T10:19:24;11.43;;;3.17;;
23470;SDS011;11908;50.806;4.424;2023-05-29T10:21:52;14.45;;;3.28;;
23470;SDS011;11908;50.806;4.424;2023-05-29T10:24:19;18.02;;;3.80;;
23470;SDS011;11908;50.806;4.424;2023-05-29T10:26:47;16.42;;;3.45;;
23470;SDS011;11908;50.806;4.424;2023-05-29T10:40:15;10.13;;;2.88;;
23470;SDS011;11908;50.806;4.424;2023-05-29T10:42:47;16.17;;;3.42;;
23470;SDS011;11908;50.806;4.424;2023-05-29T10:46:02;14.13;;;3.45;;
23470;SDS011;11908;50.806;4.424;2023-05-29T10:50:38;9.18;;;3.28;;
23470;SDS011;11908;50.806;4.424;2023-05-29T10:53:10;11.43;;;3.22;;
23470;SDS011;11908;50.806;4.424;2023-05-29T10:55:41;14.27;;;3.40;;
23470;SDS011;11908;50.806;4.424;2023-05-29T10:58:12;12.57;;;3.65;;
23470;SDS011;11908;50.806;4.424;2023-05-29T11:00:40;12.35;;;3.13;;
23470;SDS011;11908;50.806;4.424;2023-05-29T11:03:11;8.60;;;2.83;;
23470;SDS011;11908;50.806;4.424;2023-05-29T11:05:58;15.35;;;3.42;;
23470;SDS011;11908;50.806;4.424;2023-05-29T11:08:45;11.07;;;3.13;;
23470;SDS011;11908;50.806;4.424;2023-05-29T11:11:12;11.25;;;2.65;;
23470;SDS011;11908;50.806;4.424;2023-05-29T11:13:39;13.88;;;3.00;;
23470;SDS011;11908;50.806;4.424;2023-05-29T11:16:11;13.93;;;3.60;;
23470;SDS011;11908;50.806;4.424;2023-05-29T11:18:46;8.02;;;2.75;;
23470;SDS011;11908;50.806;4.424;2023-05-29T11:21:22;10.13;;;3.33;;
23470;SDS011;11908;50.806;4.424;2023-05-29T11:24:24;12.35;;;3.00;;
23470;SDS011;11908;50.806;4.424;2023-05-29T11:29:20;8.85;;;2.90;;
23470;SDS011;11908;50.806;4.424;2023-05-29T11:32:01;10.57;;;2.78;;
23470;SDS011;11908;50.806;4.424;2023-05-29T11:34:28;15.02;;;3.38;;
23470;SDS011;11908;50.806;4.424;2023-05-29T11:36:58;8.52;;;2.80;;
23470;SDS011;11908;50.806;4.424;2023-05-29T11:39:25;15.35;;;3.00;;
23470;SDS011;11908;50.806;4.424;2023-05-29T11:41:51;10.52;;;2.75;;
23470;SDS011;11908;50.806;4.424;2023-05-29T11:44:21;12.13;;;3.22;;
23470;SDS011;11908;50.806;4.424;2023-05-29T11:47:05;10.93;;;2.50;;
23470;SDS011;11908;50.806;4.424;2023-05-29T11:49:32;8.00;;;2.90;;
23470;SDS011;11908;50.806;4.424;2023-05-29T11:52:09;11.20;;;3.30;;
23470;SDS011;11908;50.806;4.424;2023-05-29T11:54:35;11.57;;;3.10;;
23470;SDS011;11908;50.806;4.424;2023-05-29T11:57:02;11.60;;;2.83;;
23470;SDS011;11908;50.806;4.424;2023-05-29T11:59:30;8.80;;;3.15;;
23470;SDS011;11908;50.806;4.424;2023-05-29T12:01:56;13.00;;;2.53;;
23470;SDS011;11908;50.806;4.424;2023-05-29T12:04:22;8.45;;;2.88;;
23470;SDS011;11908;50.806;4.424;2023-05-29T12:06:47;9.10;;;3.00;;
23470;SDS011;11908;50.806;4.424;2023-05-29T12:09:23;10.70;;;3.08;;
23470;SDS011;11908;50.806;4.424;2023-05-29T12:11:53;11.13;;;3.00;;
23470;SDS011;11908;50.806;4.424;2023-05-29T12:14:28;13.43;;;2.97;;
23470;SDS011;11908;50.806;4.424;2023-05-29T12:16:54;8.18;;;2.92;;
23470;SDS011;11908;50.806;4.424;2023-05-29T12:19:20;10.27;;;2.83;;
23470;SDS011;11908;50.806;4.424;2023-05-29T12:21:46;12.73;;;2.90;;
23470;SDS011;11908;50.806;4.424;2023-05-29T12:24:11;11.00;;;2.90;;
23470;SDS011;11908;50.806;4.424;2023-05-29T12:26:37;9.60;;;2.95;;
23470;SDS011;11908;50.806;4.424;2023-05-29T12:29:03;5.82;;;2.17;;
23470;SDS011;11908;50.806;4.424;2023-05-29T12:31:32;13.98;;;3.55;;
23470;SDS011;11908;50.806;4.424;2023-05-29T12:34:02;12.65;;;2.85;;
23470;SDS011;11908;50.806;4.424;2023-05-29T12:36:35;7.78;;;2.65;;
23470;SDS011;11908;50.806;4.424;2023-05-29T12:39:04;9.73;;;3.00;;
23470;SDS011;11908;50.806;4.424;2023-05-29T12:41:34;8.38;;;2.60;;
23470;SDS011;11908;50.806;4.424;2023-05-29T12:44:01;7.75;;;2.53;;
23470;SDS011;11908;50.806;4.424;2023-05-29T12:46:34;12.60;;;3.15;;
23470;SDS011;11908;50.806;4.424;2023-05-29T12:51:56;9.95;;;2.70;;
23470;SDS011;11908;50.806;4.424;2023-05-29T12:54:30;7.93;;;2.80;;
23470;SDS011;11908;50.806;4.424;2023-05-29T12:56:56;7.97;;;3.20;;
23470;SDS011;11908;50.806;4.424;2023-05-29T12:59:21;9.30;;;3.13;;
23470;SDS011;11908;50.806;4.424;2023-05-29T13:01:47;9.82;;;2.72;;
23470;SDS011;11908;50.806;4.424;2023-05-29T13:04:13;9.82;;;2.80;;
23470;SDS011;11908;50.806;4.424;2023-05-29T13:06:40;11.10;;;2.90;;
23470;SDS011;11908;50.806;4.424;2023-05-29T13:09:06;13.10;;;2.90;;
23470;SDS011;11908;50.806;4.424;2023-05-29T13:11:33;12.13;;;3.38;;
23470;SDS011;11908;50.806;4.424;2023-05-29T13:13:58;8.55;;;2.83;;
23470;SDS011;11908;50.806;4.424;2023-05-29T13:16:24;10.40;;;2.65;;
23470;SDS011;11908;50.806;4.424;2023-05-29T13:18:50;10.88;;;2.75;;
23470;SDS011;11908;50.806;4.424;2023-05-29T13:21:16;10.13;;;2.92;;
23470;SDS011;11908;50.806;4.424;2023-05-29T13:23:41;11.57;;;2.97;;
23470;SDS011;11908;50.806;4.424;2023-05-29T13:26:07;11.60;;;3.35;;
23470;SDS011;11908;50.806;4.424;2023-05-29T13:28:33;12.02;;;3.20;;
23470;SDS011;11908;50.806;4.424;2023-05-29T13:30:58;12.07;;;3.45;;
23470;SDS011;11908;50.806;4.424;2023-05-29T13:33:24;7.43;;;2.50;;
23470;SDS011;11908;50.806;4.424;2023-05-29T13:35:50;11.73;;;2.80;;
23470;SDS011;11908;50.806;4.424;2023-05-29T13:38:15;6.43;;;2.65;;
23470;SDS011;11908;50.806;4.424;2023-05-29T13:40:41;7.78;;;2.90;;
23470;SDS011;11908;50.806;4.424;2023-05-29T13:43:07;13.90;;;3.25;;
23470;SDS011;11908;50.806;4.424;2023-05-29T13:45:32;13.57;;;3.42;;
23470;SDS011;11908;50.806;4.424;2023-05-29T13:47:58;10.77;;;3.85;;
23470;SDS011;11908;50.806;4.424;2023-05-29T13:50:24;7.53;;;2.72;;
23470;SDS011;11908;50.806;4.424;2023-05-29T13:52:50;10.20;;;2.88;;
23470;SDS011;11908;50.806;4.424;2023-05-29T13:55:16;11.88;;;2.70;;
23470;SDS011;11908;50.806;4.424;2023-05-29T13:57:42;9.70;;;2.90;;
23470;SDS011;11908;50.806;4.424;2023-05-29T14:00:10;11.38;;;3.25;;
23470;SDS011;11908;50.806;4.424;2023-05-29T14:02:37;8.85;;;3.30;;
23470;SDS011;11908;50.806;4.424;2023-05-29T14:05:02;10.77;;;3.15;;
23470;SDS011;11908;50.806;4.424;2023-05-29T14:07:29;11.15;;;2.95;;
23470;SDS011;11908;50.806;4.424;2023-05-29T14:09:54;10.82;;;3.42;;
23470;SDS011;11908;50.806;4.424;2023-05-29T14:12:20;19.02;;;3.40;;
23470;SDS011;11908;50.806;4.424;2023-05-29T14:14:45;14.13;;;3.42;;
23470;SDS011;11908;50.806;4.424;2023-05-29T14:17:11;9.70;;;2.90;;
23470;SDS011;11908;50.806;4.424;2023-05-29T14:19:38;10.90;;;2.70;;
23470;SDS011;11908;50.806;4.424;2023-05-29T14:22:04;13.05;;;3.53;;
23470;SDS011;11908;50.806;4.424;2023-05-29T14:24:30;8.98;;;3.00;;
23470;SDS011;11908;50.806;4.424;2023-05-29T14:26:55;9.38;;;3.00;;
23470;SDS011;11908;50.806;4.424;2023-05-29T14:29:22;8.20;;;2.55;;
23470;SDS011;11908;50.806;4.424;2023-05-29T14:31:48;13.95;;;2.85;;
23470;SDS011;11908;50.806;4.424;2023-05-29T14:34:13;12.77;;;3.00;;
23470;SDS011;11908;50.806;4.424;2023-05-29T14:36:39;15.13;;;2.97;;
23470;SDS011;11908;50.806;4.424;2023-05-29T14:39:06;12.18;;;2.97;;
23470;SDS011;11908;50.806;4.424;2023-05-29T14:41:32;7.72;;;2.90;;
23470;SDS011;11908;50.806;4.424;2023-05-29T14:43:59;7.32;;;3.13;;
23470;SDS011;11908;50.806;4.424;2023-05-29T14:46:25;20.95;;;3.60;;
23470;SDS011;11908;50.806;4.424;2023-05-29T14:48:53;10.00;;;3.05;;
23470;SDS011;11908;50.806;4.424;2023-05-29T14:51:19;11.57;;;3.00;;
23470;SDS011;11908;50.806;4.424;2023-05-29T14:53:45;12.05;;;3.42;;
23470;SDS011;11908;50.806;4.424;2023-05-29T14:56:11;11.38;;;2.92;;
23470;SDS011;11908;50.806;4.424;2023-05-29T14:58:37;11.25;;;3.33;;
23470;SDS011;11908;50.806;4.424;2023-05-29T15:01:02;9.10;;;2.70;;
23470;SDS011;11908;50.806;4.424;2023-05-29T15:03:28;8.40;;;2.50;;